Time;durP1;ratioP1;P1;durP2;ratioP2;P2;SDS_P1;SDS_P2;PMS_P1;PMS_P2;Temp;Humidity;BMP_temperature;BMP_pressure;BME280_temperature;BME280_humidity;BME280_pressure;Samples;Min_cycle;Max_cycle;Signal;HPM_P1;HPM_P2
2023/04/08 00:00:35;;;;;;;25.60;10.25;;;8.90;99.90;;;;;;4991681;28;20214;-41
2023/04/08 00:03:01;;;;;;;22.70;10.35;;;8.90;99.90;;;;;;4982274;28;20177;-41
2023/04/08 00:05:27;;;;;;;18.92;9.95;;;8.90;99.90;;;;;;4972155;28;20633;-41
2023/04/08 00:07:53;;;;;;;16.13;10.82;;;8.80;99.90;;;;;;4971713;28;20217;-43
2023/04/08 00:10:19;;;;;;;18.45;10.25;;;8.90;99.90;;;;;;4971957;28;20173;-42
2023/04/08 00:12:47;;;;;;;20.00;11.18;;;8.80;99.90;;;;;;4971534;28;20184;-43
2023/04/08 00:15:13;;;;;;;22.83;11.30;;;;;;;;;;4971876;28;20617;-44
2023/04/08 00:17:40;;;;;;;19.23;10.23;;;8.80;99.90;;;;;;4971738;28;20209;-42
2023/04/08 00:20:06;;;;;;;20.83;10.27;;;;;;;;;;4971897;28;20232;-41
2023/04/08 00:22:32;;;;;;;22.40;11.00;;;8.80;99.90;;;;;;4971991;28;20625;-41
2023/04/08 00:24:57;;;;;;;21.27;11.50;;;8.80;99.90;;;;;;4971803;28;20188;-41
2023/04/08 00:27:24;;;;;;;23.85;12.05;;;;;;;;;;4971721;28;20174;-40
2023/04/08 00:29:50;;;;;;;21.08;11.80;;;;;;;;;;4971670;28;20215;-41
2023/04/08 00:32:16;;;;;;;23.77;12.80;;;8.80;99.90;;;;;;4970622;28;20205;-41
2023/04/08 00:34:42;;;;;;;31.30;13.32;;;;;;;;;;4969125;28;20185;-42
2023/04/08 00:37:08;;;;;;;27.50;13.57;;;;;;;;;;4970609;28;20216;-41
2023/04/08 00:39:33;;;;;;;25.55;13.27;;;8.80;99.90;;;;;;4971377;28;20173;-41
2023/04/08 00:42:00;;;;;;;26.88;13.40;;;;;;;;;;4971355;28;20517;-41
2023/04/08 00:44:26;;;;;;;24.88;13.77;;;8.80;99.90;;;;;;4971674;28;20168;-41
2023/04/08 00:46:52;;;;;;;24.38;13.23;;;8.80;99.90;;;;;;4971169;28;20165;-41
2023/04/08 00:49:18;;;;;;;21.85;12.93;;;8.80;99.90;;;;;;4971213;28;20515;-41
2023/04/08 00:51:44;;;;;;;26.10;14.65;;;8.90;99.90;;;;;;4971372;28;20170;-41
2023/04/08 00:54:10;;;;;;;27.77;15.82;;;8.80;99.90;;;;;;4971417;28;20536;-41
2023/04/08 00:56:36;;;;;;;22.25;15.10;;;8.70;99.90;;;;;;4971022;28;20641;-41
2023/04/08 00:59:02;;;;;;;26.58;14.80;;;;;;;;;;4971234;28;20174;-41
2023/04/08 01:02:05;;;;;;;30.77;15.82;;;8.70;99.90;;;;;;4971472;28;20177;-41
2023/04/08 01:04:31;;;;;;;34.67;15.07;;;;;;;;;;4951631;28;20231;-41
2023/04/08 01:07:17;;;;;;;32.45;14.35;;;8.70;99.90;;;;;;4952478;28;20178;-41
2023/04/08 01:09:55;;;;;;;29.70;14.15;;;8.70;99.90;;;;;;4951471;28;20610;-41
2023/04/08 01:12:28;;;;;;;32.72;14.82;;;8.60;99.90;;;;;;4951731;28;20177;-41
2023/04/08 01:15:02;;;;;;;32.92;14.88;;;8.60;99.90;;;;;;4951417;28;20177;-41
2023/04/08 01:17:29;;;;;;;33.78;14.68;;;8.70;99.90;;;;;;4951729;28;20201;-41
2023/04/08 01:19:58;;;;;;;24.10;14.07;;;8.60;99.90;;;;;;4953399;28;20197;-41
2023/04/08 01:22:24;;;;;;;32.58;16.48;;;;;;;;;;4971406;28;20519;-41
2023/04/08 01:24:56;;;;;;;33.67;15.77;;;8.70;99.90;;;;;;4970936;28;20226;-41
2023/04/08 01:27:22;;;;;;;36.55;16.15;;;;;;;;;;4972506;28;20233;-41
2023/04/08 01:29:48;;;;;;;31.95;16.00;;;8.70;99.90;;;;;;4990150;28;20173;-41
2023/04/08 01:32:15;;;;;;;33.85;15.30;;;8.70;99.90;;;;;;4990255;28;20211;-41
2023/04/08 01:34:42;;;;;;;29.27;15.63;;;8.70;99.90;;;;;;4989918;28;20215;-41
2023/04/08 01:37:08;;;;;;;28.45;15.80;;;8.70;99.90;;;;;;4989825;28;20223;-41
2023/04/08 01:39:35;;;;;;;27.48;14.20;;;;;;;;;;4989809;28;20169;-41
2023/04/08 01:42:01;;;;;;;27.23;13.95;;;8.70;99.90;;;;;;4990059;28;20181;-41
2023/04/08 01:44:28;;;;;;;31.67;16.25;;;8.70;99.90;;;;;;4990195;28;20177;-41
2023/04/08 01:46:55;;;;;;;26.80;15.15;;;8.70;99.90;;;;;;4988218;28;20172;-41
2023/04/08 01:49:22;;;;;;;26.10;14.15;;;8.70;99.90;;;;;;4989785;28;20246;-41
2023/04/08 01:51:48;;;;;;;27.27;14.50;;;;;;;;;;4989578;28;20168;-41
2023/04/08 01:54:15;;;;;;;27.88;14.45;;;;;;;;;;4989596;28;20683;-41
2023/04/08 01:56:43;;;;;;;21.85;13.80;;;8.70;99.90;;;;;;4976733;28;20193;-41
2023/04/08 01:59:12;;;;;;;26.52;15.68;;;8.70;99.90;;;;;;4970051;28;20177;-41
2023/04/08 02:01:40;;;;;;;23.83;13.90;;;8.60;99.90;;;;;;4970241;28;20177;-41
2023/04/08 02:04:06;;;;;;;30.90;14.80;;;8.70;99.90;;;;;;4970495;28;20617;-41
2023/04/08 02:06:32;;;;;;;29.98;14.18;;;8.60;99.90;;;;;;4970686;28;20223;-41
2023/04/08 02:08:59;;;;;;;30.33;15.77;;;8.60;99.90;;;;;;4990041;28;20224;-41
2023/04/08 02:11:25;;;;;;;33.55;14.27;;;;;;;;;;4989853;28;20509;-41
2023/04/08 02:13:51;;;;;;;28.30;15.38;;;8.60;99.90;;;;;;4989348;28;20187;-41
2023/04/08 02:16:28;;;;;;;26.20;14.23;;;8.60;99.90;;;;;;4989740;28;20690;-41
2023/04/08 02:19:08;;;;;;;30.80;14.52;;;8.70;99.90;;;;;;4989623;28;20184;-41
2023/04/08 02:21:43;;;;;;;27.77;15.07;;;8.60;99.90;;;;;;4989597;28;20169;-41
2023/04/08 02:24:12;;;;;;;31.48;15.35;;;8.60;99.90;;;;;;4989359;28;20164;-41
2023/04/08 02:26:39;;;;;;;35.67;17.25;;;8.60;99.90;;;;;;4985333;28;20169;-41
2023/04/08 02:29:06;;;;;;;26.08;15.98;;;8.70;99.90;;;;;;4969600;28;20177;-41
2023/04/08 02:31:33;;;;;;;40.25;16.65;;;8.60;99.90;;;;;;4969765;28;20180;-41
2023/04/08 02:33:59;;;;;;;34.15;16.35;;;8.60;99.90;;;;;;4969601;28;20215;-41
2023/04/08 02:36:25;;;;;;;33.60;15.15;;;8.60;99.90;;;;;;4969713;28;20182;-41
2023/04/08 02:38:51;;;;;;;31.27;15.43;;;;;;;;;;4969691;28;20173;-41
2023/04/08 02:41:17;;;;;;;29.05;16.67;;;8.60;99.90;;;;;;4969866;28;20248;-42
2023/04/08 02:43:42;;;;;;;31.23;14.98;;;8.50;99.90;;;;;;4969712;28;20180;-41
2023/04/08 02:46:10;;;;;;;32.80;16.33;;;8.60;99.90;;;;;;4971050;28;20169;-41
2023/04/08 02:48:35;;;;;;;29.92;15.73;;;8.50;99.90;;;;;;4988657;28;20218;-41
2023/04/08 02:51:01;;;;;;;34.08;17.30;;;8.60;99.90;;;;;;4987733;28;20261;-42
2023/04/08 02:53:27;;;;;;;31.58;15.55;;;8.60;99.90;;;;;;4989154;28;20168;-41
2023/04/08 02:55:52;;;;;;;37.40;16.42;;;8.60;99.90;;;;;;4988944;28;20181;-41
2023/04/08 02:58:18;;;;;;;34.83;15.65;;;8.60;99.90;;;;;;4989260;28;20223;-41
2023/04/08 03:00:44;;;;;;;26.52;15.60;;;8.60;99.90;;;;;;4992381;28;20168;-41
2023/04/08 03:03:09;;;;;;;30.23;16.13;;;8.60;99.90;;;;;;4992512;28;20654;-41
2023/04/08 03:05:35;;;;;;;29.10;17.98;;;8.60;99.90;;;;;;4992113;28;20192;-41
2023/04/08 03:08:01;;;;;;;29.60;16.33;;;;;;;;;;4972934;28;20648;-41
2023/04/08 03:10:27;;;;;;;31.45;16.23;;;8.60;99.90;;;;;;4972990;28;20696;-41
2023/04/08 03:12:53;;;;;;;30.73;16.85;;;;;;;;;;4972839;28;20264;-41
2023/04/08 03:15:19;;;;;;;23.52;15.85;;;8.50;99.90;;;;;;4972598;28;20192;-40
2023/04/08 03:17:45;;;;;;;22.85;15.90;;;;;;;;;;4972428;28;20212;-41
2023/04/08 03:20:11;;;;;;;28.55;16.05;;;8.60;99.90;;;;;;4972937;28;20184;-41
2023/04/08 03:22:36;;;;;;;25.02;16.58;;;8.60;99.90;;;;;;4972851;28;20235;-41
2023/04/08 03:25:03;;;;;;;23.88;14.85;;;8.60;99.90;;;;;;4972526;28;20252;-41
2023/04/08 03:27:28;;;;;;;28.08;15.63;;;8.60;99.90;;;;;;4988582;28;20311;-41
2023/04/08 03:29:56;;;;;;;24.20;15.23;;;;;;;;;;4992218;28;20252;-41
2023/04/08 03:32:22;;;;;;;24.88;14.70;;;8.60;99.90;;;;;;4992080;28;20209;-41
2023/04/08 03:34:49;;;;;;;31.38;16.42;;;8.50;99.90;;;;;;4991745;28;20200;-41
2023/04/08 03:37:16;;;;;;;24.88;15.88;;;8.60;99.90;;;;;;4991847;28;20204;-41
2023/04/08 03:39:42;;;;;;;25.25;15.60;;;;;;;;;;4991648;28;20200;-41
2023/04/08 03:42:07;;;;;;;28.23;16.33;;;8.70;99.90;;;;;;4991820;28;20550;-41
2023/04/08 03:44:33;;;;;;;23.55;15.00;;;8.60;99.90;;;;;;4991646;28;20592;-41
2023/04/08 03:46:58;;;;;;;23.90;15.90;;;8.60;99.90;;;;;;4991555;28;20180;-44
2023/04/08 03:49:24;;;;;;;25.73;15.38;;;;;;;;;;4992071;28;20184;-44
2023/04/08 03:51:50;;;;;;;25.50;16.42;;;8.70;99.90;;;;;;4991798;28;20252;-41
2023/04/08 03:54:15;;;;;;;28.63;15.73;;;8.60;99.90;;;;;;4991640;28;20568;-41
2023/04/08 03:56:41;;;;;;;30.85;18.65;;;;;;;;;;4970968;28;20182;-41
2023/04/08 03:59:07;;;;;;;32.40;16.95;;;8.60;99.90;;;;;;4952717;28;20177;-41
2023/04/08 04:01:32;;;;;;;36.03;17.75;;;8.60;99.90;;;;;;4951423;28;20182;-41
2023/04/08 04:03:58;;;;;;;30.80;17.98;;;;;;;;;;4952973;28;20220;-40
2023/04/08 04:06:25;;;;;;;25.88;16.85;;;8.70;99.90;;;;;;4953028;28;20170;-41
2023/04/08 04:08:53;;;;;;;30.70;17.88;;;8.70;99.90;;;;;;4952208;28;20230;-41
2023/04/08 04:11:20;;;;;;;31.98;18.25;;;;;;;;;;4952294;28;20260;-40
2023/04/08 04:13:46;;;;;;;36.80;18.95;;;8.70;99.90;;;;;;4952582;28;20701;-41
2023/04/08 04:16:11;;;;;;;29.35;17.90;;;8.60;99.90;;;;;;4952687;28;20243;-41
2023/04/08 04:18:37;;;;;;;31.85;18.38;;;;;;;;;;4952403;28;20248;-41
2023/04/08 04:21:06;;;;;;;30.80;18.33;;;8.60;99.90;;;;;;4952449;28;20174;-41
2023/04/08 04:23:32;;;;;;;30.48;18.52;;;8.70;99.90;;;;;;4952393;28;20253;-40
2023/04/08 04:25:58;;;;;;;29.00;18.70;;;;;;;;;;4960356;28;20302;-40
2023/04/08 04:28:24;;;;;;;30.55;19.13;;;;;;;;;;4989532;28;20216;-40
2023/04/08 04:30:50;;;;;;;30.77;18.13;;;;;;;;;;4990979;28;20165;-40
2023/04/08 04:33:15;;;;;;;29.30;17.48;;;8.70;99.90;;;;;;4990816;28;20545;-40
2023/04/08 04:35:41;;;;;;;32.22;19.15;;;;;;;;;;4990898;28;20165;-41
2023/04/08 04:38:11;;;;;;;32.78;18.83;;;;;;;;;;4990781;28;20300;-41
2023/04/08 04:40:37;;;;;;;37.25;19.80;;;8.70;99.90;;;;;;4990778;28;20621;-40
2023/04/08 04:43:02;;;;;;;28.63;17.42;;;8.70;99.90;;;;;;4990778;28;20172;-41
2023/04/08 04:45:29;;;;;;;34.08;19.52;;;;;;;;;;4990741;28;20168;-41
2023/04/08 04:47:54;;;;;;;35.35;19.45;;;8.70;99.90;;;;;;4991336;28;20177;-41
2023/04/08 04:50:20;;;;;;;33.40;18.85;;;;;;;;;;4991024;28;20272;-40
2023/04/08 04:52:46;;;;;;;41.28;22.63;;;8.70;99.90;;;;;;4990538;28;20164;-41
2023/04/08 04:55:12;;;;;;;43.03;22.58;;;8.70;99.90;;;;;;4990579;28;20251;-40
2023/04/08 04:57:37;;;;;;;40.72;22.52;;;8.80;99.90;;;;;;4989767;28;20216;-41
2023/04/08 05:00:03;;;;;;;41.70;22.45;;;;;;;;;;4971283;28;20201;-41
2023/04/08 05:02:29;;;;;;;34.35;21.10;;;8.60;99.90;;;;;;4971239;28;20205;-40
2023/04/08 05:04:55;;;;;;;38.50;21.52;;;8.70;99.90;;;;;;4971605;28;20287;-41
2023/04/08 05:07:21;;;;;;;41.13;21.13;;;8.70;99.90;;;;;;4971000;28;20200;-41
2023/04/08 05:09:46;;;;;;;41.95;22.08;;;8.60;99.90;;;;;;4970777;28;20292;-40
2023/04/08 05:12:13;;;;;;;40.25;22.63;;;;;;;;;;4970823;28;20303;-40
2023/04/08 05:14:40;;;;;;;41.25;22.55;;;8.70;99.90;;;;;;4970977;28;20177;-40
2023/04/08 05:17:06;;;;;;;42.13;22.13;;;;;;;;;;4971099;28;20266;-40
2023/04/08 05:19:31;;;;;;;46.28;24.05;;;;;;;;;;4970806;28;20269;-41
2023/04/08 05:21:57;;;;;;;46.15;22.58;;;;;;;;;;4970119;28;20180;-40
2023/04/08 05:24:23;;;;;;;49.53;23.25;;;;;;;;;;4971166;28;20184;-41
2023/04/08 05:26:51;;;;;;;49.67;23.15;;;8.90;99.90;;;;;;4983774;28;20213;-41
2023/04/08 05:29:17;;;;;;;43.35;21.67;;;8.90;99.90;;;;;;4990494;28;20208;-43
2023/04/08 05:31:44;;;;;;;41.65;23.88;;;;;;;;;;4989990;28;20180;-44
2023/04/08 05:34:10;;;;;;;41.97;22.35;;;;;;;;;;4990513;28;20226;-44
2023/04/08 05:36:36;;;;;;;47.88;23.77;;;8.80;99.90;;;;;;4989919;28;20704;-44
2023/04/08 05:39:02;;;;;;;47.83;24.77;;;8.80;99.90;;;;;;4989998;28;20251;-44
2023/04/08 05:41:28;;;;;;;48.83;24.52;;;;;;;;;;4990032;28;20259;-41
2023/04/08 05:43:53;;;;;;;45.10;24.63;;;8.90;99.90;;;;;;4990071;28;20689;-44
2023/04/08 05:46:19;;;;;;;46.17;25.52;;;9.10;99.90;;;;;;4989744;28;20195;-45
2023/04/08 05:48:45;;;;;;;43.47;24.00;;;;;;;;;;4989802;28;20530;-45
2023/04/08 05:51:14;;;;;;;37.83;22.13;;;9.00;99.90;;;;;;4990152;28;20181;-44
2023/04/08 05:53:40;;;;;;;49.72;23.58;;;9.00;99.90;;;;;;4990040;28;20169;-44
2023/04/08 05:56:06;;;;;;;50.03;24.23;;;9.10;99.90;;;;;;4989433;28;20176;-44
2023/04/08 05:58:31;;;;;;;41.47;23.70;;;9.10;99.90;;;;;;4978755;28;20292;-44
2023/04/08 06:00:57;;;;;;;44.53;24.02;;;;;;;;;;4970294;28;20236;-43
2023/04/08 06:03:23;;;;;;;45.13;23.98;;;9.10;99.90;;;;;;4970490;28;20277;-43
2023/04/08 06:05:49;;;;;;;48.85;23.80;;;9.10;99.90;;;;;;4970140;28;20170;-44
2023/04/08 06:08:15;;;;;;;47.22;24.50;;;;;;;;;;4969998;28;20270;-42
2023/04/08 06:10:49;;;;;;;46.22;25.33;;;9.10;99.90;;;;;;4970049;28;20637;-44
2023/04/08 06:13:14;;;;;;;49.63;25.10;;;9.00;99.90;;;;;;4969989;28;20660;-45
2023/04/08 06:15:40;;;;;;;49.35;26.48;;;9.00;99.90;;;;;;4970241;28;20173;-44
2023/04/08 06:18:06;;;;;;;46.60;26.10;;;;;;;;;;4969873;28;20216;-44
2023/04/08 06:20:31;;;;;;;47.78;26.65;;;9.10;99.90;;;;;;4969963;28;20656;-44
2023/04/08 06:22:57;;;;;;;54.70;27.88;;;9.20;99.90;;;;;;4969870;28;20637;-43
2023/04/08 06:25:23;;;;;;;46.83;26.90;;;;;;;;;;4970160;28;20161;-43
2023/04/08 06:27:49;;;;;;;54.78;28.23;;;9.10;99.90;;;;;;4974161;28;20169;-42
2023/04/08 06:30:15;;;;;;;49.97;27.85;;;9.20;99.90;;;;;;4988831;28;20186;-41
2023/04/08 06:32:41;;;;;;;46.13;28.70;;;;;;;;;;4989002;28;20320;-41
2023/04/08 06:35:07;;;;;;;49.17;27.55;;;9.20;99.90;;;;;;4987918;28;20762;-42
2023/04/08 06:37:37;;;;;;;45.47;26.52;;;;;;;;;;4989164;28;20215;-41
2023/04/08 06:40:05;;;;;;;53.97;29.65;;;9.40;99.90;;;;;;4989292;28;20176;-41
2023/04/08 06:42:31;;;;;;;46.45;26.95;;;9.50;99.90;;;;;;4989194;28;20232;-44
2023/04/08 06:44:57;;;;;;;47.05;28.40;;;;;;;;;;4988980;28;20644;-42
2023/04/08 06:47:23;;;;;;;50.05;28.08;;;9.70;99.90;;;;;;4989527;28;20177;-44
2023/04/08 06:49:48;;;;;;;43.50;25.80;;;9.80;99.90;;;;;;4988950;28;20628;-43
2023/04/08 06:52:15;;;;;;;42.80;25.95;;;9.90;99.90;;;;;;4988875;28;20181;-45
2023/04/08 06:54:41;;;;;;;43.20;26.90;;;9.80;99.90;;;;;;4989022;28;20639;-43
2023/04/08 06:57:07;;;;;;;42.47;25.45;;;9.90;99.90;;;;;;4988850;28;20197;-44
2023/04/08 06:59:32;;;;;;;42.70;27.52;;;10.00;99.90;;;;;;4969428;28;20177;-41
2023/04/08 07:01:59;;;;;;;45.63;28.77;;;;;;;;;;4969340;28;20178;-41
2023/04/08 07:04:24;;;;;;;42.17;26.75;;;10.20;99.90;;;;;;4969745;28;20264;-41
2023/04/08 07:06:50;;;;;;;39.95;24.85;;;10.30;99.90;;;;;;4969633;28;20252;-44
2023/04/08 07:09:16;;;;;;;39.67;25.08;;;;;;;;;;4969316;28;21149;-41
2023/04/08 07:11:41;;;;;;;42.95;27.20;;;10.50;99.90;;;;;;4969465;28;20176;-42
2023/04/08 07:14:07;;;;;;;41.78;26.17;;;10.50;99.90;;;;;;4969337;28;20169;-43
2023/04/08 07:16:33;;;;;;;41.33;27.02;;;;;;;;;;4969066;28;20172;-44
2023/04/08 07:18:59;;;;;;;39.60;24.05;;;10.60;99.90;;;;;;4969015;28;20177;-42
2023/04/08 07:21:25;;;;;;;38.90;25.25;;;;;;;;;;4969453;28;20193;-41
2023/04/08 07:23:50;;;;;;;35.88;24.98;;;10.70;99.90;;;;;;4969107;28;20219;-41
2023/04/08 07:26:16;;;;;;;35.88;24.02;;;10.80;99.90;;;;;;4967660;28;20247;-41
2023/04/08 07:28:42;;;;;;;33.35;23.83;;;;;;;;;;4982906;28;20180;-41
2023/04/08 07:31:09;;;;;;;37.58;24.75;;;10.80;99.90;;;;;;4987988;28;20254;-41
2023/04/08 07:33:35;;;;;;;31.45;22.17;;;10.80;99.90;;;;;;4988628;28;20544;-43
2023/04/08 07:36:01;;;;;;;31.23;23.23;;;;;;;;;;4988492;28;20247;-44
2023/04/08 07:38:27;;;;;;;35.88;23.98;;;;;;;;;;4988200;28;20254;-40
2023/04/08 07:40:52;;;;;;;35.47;23.90;;;10.60;99.90;;;;;;4988615;28;20196;-41
2023/04/08 07:43:18;;;;;;;32.80;22.95;;;10.50;99.90;;;;;;4986977;28;20715;-41
2023/04/08 07:45:43;;;;;;;36.63;24.88;;;10.50;99.90;;;;;;4990774;28;20165;-41
2023/04/08 07:48:09;;;;;;;35.03;22.88;;;10.60;99.90;;;;;;4990146;28;20173;-43
2023/04/08 07:50:36;;;;;;;35.67;24.20;;;10.80;99.90;;;;;;4991525;28;20197;-41
2023/04/08 07:53:02;;;;;;;32.65;23.88;;;;;;;;;;4991666;28;20584;-43
2023/04/08 07:55:32;;;;;;;34.17;23.67;;;11.00;99.90;;;;;;4991656;28;20169;-42
2023/04/08 07:57:58;;;;;;;34.53;24.48;;;11.20;99.90;;;;;;4983540;28;20212;-44
2023/04/08 08:00:24;;;;;;;34.58;24.33;;;;;;;;;;4972325;28;20540;-41
2023/04/08 08:02:50;;;;;;;33.38;23.80;;;;;;;;;;4972267;28;20177;-42
2023/04/08 08:05:15;;;;;;;37.70;26.67;;;11.50;99.90;;;;;;4972011;28;20515;-42
2023/04/08 08:07:41;;;;;;;37.88;25.15;;;11.70;99.90;;;;;;4971692;28;20176;-40
2023/04/08 08:10:07;;;;;;;43.42;26.63;;;11.60;99.90;;;;;;4972010;28;20189;-40
2023/04/08 08:12:33;;;;;;;44.05;28.55;;;;;;;;;;4971763;28;20170;-40
2023/04/08 08:14:59;;;;;;;45.92;29.17;;;11.50;99.90;;;;;;4971529;28;20231;-40
2023/04/08 08:17:28;;;;;;;47.63;31.38;;;11.40;99.90;;;;;;4972266;28;20213;-40
2023/04/08 08:19:54;;;;;;;46.47;30.25;;;11.60;99.90;;;;;;4972071;28;20177;-40
2023/04/08 08:22:20;;;;;;;42.28;27.20;;;;;;;;;;4971650;28;20247;-41
2023/04/08 08:24:46;;;;;;;44.08;28.08;;;11.70;99.90;;;;;;4972000;28;21076;-40
2023/04/08 08:27:11;;;;;;;47.70;31.00;;;11.70;99.90;;;;;;4971869;28;20191;-40
2023/04/08 08:29:37;;;;;;;45.95;30.77;;;;;;;;;;4970203;28;20196;-40
2023/04/08 08:32:03;;;;;;;49.53;29.98;;;11.90;99.90;;;;;;4971578;28;20182;-40
2023/04/08 08:34:29;;;;;;;49.15;33.17;;;;;;;;;;4971596;28;20284;-40
2023/04/08 08:36:55;;;;;;;52.85;32.72;;;;;;;;;;4971797;28;20208;-40
2023/04/08 08:39:21;;;;;;;48.38;32.15;;;12.40;99.90;;;;;;4972009;28;20178;-40
2023/04/08 08:41:47;;;;;;;48.95;32.55;;;12.60;99.90;;;;;;4971642;28;20176;-40
2023/04/08 08:44:12;;;;;;;48.60;33.20;;;12.70;99.90;;;;;;4971196;28;20648;-40
2023/04/08 08:46:47;;;;;;;51.53;34.22;;;12.40;99.90;;;;;;4971540;28;20260;-40
2023/04/08 08:49:13;;;;;;;50.45;33.97;;;;;;;;;;4971527;28;20497;-40
2023/04/08 08:51:39;;;;;;;54.38;34.08;;;12.20;99.90;;;;;;4971508;28;20629;-40
2023/04/08 08:54:05;;;;;;;53.10;32.17;;;12.00;99.90;;;;;;4971086;28;20169;-40
2023/04/08 08:56:33;;;;;;;59.00;33.40;;;12.10;99.90;;;;;;4970029;28;20561;-40
2023/04/08 08:58:59;;;;;;;49.63;32.78;;;;;;;;;;4988845;28;20572;-40
2023/04/08 09:01:36;;;;;;;53.72;33.65;;;12.30;99.90;;;;;;4990944;28;20175;-40
2023/04/08 09:04:19;;;;;;;51.78;33.55;;;12.00;99.90;;;;;;4990637;28;20195;-40
2023/04/08 09:06:46;;;;;;;51.85;34.35;;;12.00;99.90;;;;;;4990725;28;20177;-40
2023/04/08 09:09:12;;;;;;;53.00;35.47;;;11.90;99.90;;;;;;4990492;28;20236;-40
2023/04/08 09:11:39;;;;;;;51.65;33.53;;;;;;;;;;4990152;28;20172;-41
2023/04/08 09:14:15;;;;;;;52.85;34.20;;;11.80;99.90;;;;;;4990480;28;20169;-41
2023/04/08 09:16:43;;;;;;;49.13;33.53;;;;;;;;;;4990156;28;20263;-40
2023/04/08 09:19:10;;;;;;;48.95;32.67;;;11.90;99.90;;;;;;4989976;28;20205;-41
2023/04/08 09:21:36;;;;;;;50.60;34.05;;;12.20;99.90;;;;;;4990222;28;20169;-41
2023/04/08 09:24:03;;;;;;;50.50;34.55;;;12.20;99.90;;;;;;4990326;28;20291;-40
2023/04/08 09:26:29;;;;;;;50.85;33.63;;;12.20;99.90;;;;;;4990046;28;20245;-44
2023/04/08 09:29:03;;;;;;;49.80;33.05;;;12.20;99.90;;;;;;4973170;28;20205;-40
2023/04/08 09:31:31;;;;;;;50.67;33.50;;;12.20;99.90;;;;;;4970781;28;20180;-40
2023/04/08 09:33:58;;;;;;;48.95;33.47;;;12.30;99.90;;;;;;4979588;28;20173;-41
2023/04/08 09:36:26;;;;;;;53.15;34.33;;;12.20;99.90;;;;;;4977004;28;20185;-40
2023/04/08 09:38:53;;;;;;;45.03;32.53;;;;;;;;;;4970962;28;20574;-40
2023/04/08 09:41:20;;;;;;;47.35;33.70;;;12.50;99.90;;;;;;4970628;28;20169;-40
2023/04/08 09:43:53;;;;;;;43.80;31.42;;;12.30;99.90;;;;;;4970707;28;20494;-41
2023/04/08 09:46:45;;;;;;;45.28;30.95;;;12.30;99.90;;;;;;4970723;28;20181;-40
2023/04/08 09:49:27;;;;;;;48.78;31.58;;;12.10;99.90;;;;;;5000188;28;20231;-40
2023/04/08 09:51:56;;;;;;;44.47;31.83;;;;;;;;;;4971128;28;20172;-40
2023/04/08 09:54:31;;;;;;;44.30;31.17;;;12.40;99.90;;;;;;4970531;28;20688;-41
2023/04/08 09:57:04;;;;;;;48.50;31.92;;;12.30;99.90;;;;;;4971083;28;20180;-40
2023/04/08 09:59:33;;;;;;;43.10;29.88;;;12.20;99.90;;;;;;4989643;28;20200;-40
2023/04/08 10:02:04;;;;;;;38.58;27.17;;;12.20;99.90;;;;;;4988230;28;20168;-41
2023/04/08 10:04:34;;;;;;;39.28;28.60;;;12.10;99.90;;;;;;4989595;28;20308;-40
2023/04/08 10:07:03;;;;;;;41.67;29.38;;;12.00;99.90;;;;;;4989339;28;20209;-40
2023/04/08 10:09:31;;;;;;;41.20;29.88;;;11.90;99.90;;;;;;4989398;28;20695;-41
2023/04/08 10:11:57;;;;;;;43.65;30.40;;;12.10;99.90;;;;;;4989359;28;20183;-40
2023/04/08 10:14:25;;;;;;;41.83;29.20;;;12.10;99.90;;;;;;4989629;28;20260;-40
2023/04/08 10:17:27;;;;;;;41.90;29.50;;;12.00;99.90;;;;;;4990004;28;20187;-40
2023/04/08 10:19:52;;;;;;;38.70;28.80;;;12.10;99.90;;;;;;4989869;28;20180;-40
2023/04/08 10:22:27;;;;;;;29.52;21.08;;;12.00;99.90;;;;;;4989384;28;20284;-41
2023/04/08 10:25:15;;;;;;;26.80;20.27;;;12.10;99.90;;;;;;4989802;28;20164;-40
2023/04/08 10:27:41;;;;;;;24.98;19.70;;;12.10;99.90;;;;;;4981805;28;20180;-43
2023/04/08 10:30:33;;;;;;;19.33;16.77;;;12.10;99.90;;;;;;4968718;28;20183;-43
2023/04/08 10:32:59;;;;;;;19.38;16.17;;;12.30;99.90;;;;;;4972315;28;20185;-44
2023/04/08 10:35:29;;;;;;;16.52;14.68;;;13.20;99.90;;;;;;4970284;28;20178;-43
2023/04/08 10:37:55;;;;;;;16.88;13.95;;;12.10;99.90;;;;;;4970431;28;20217;-43
2023/04/08 10:40:20;;;;;;;19.02;15.77;;;12.00;99.90;;;;;;4969964;28;20235;-40
2023/04/08 10:42:46;;;;;;;16.80;13.65;;;12.30;99.90;;;;;;4969655;28;20629;-40
2023/04/08 10:45:16;;;;;;;16.05;13.82;;;12.20;99.90;;;;;;4969652;28;20173;-43
2023/04/08 10:47:42;;;;;;;16.10;13.82;;;;;;;;;;4969892;28;20204;-43
2023/04/08 10:50:16;;;;;;;17.77;14.43;;;12.20;99.90;;;;;;4969933;28;20498;-44
2023/04/08 10:52:48;;;;;;;18.40;15.73;;;12.10;99.90;;;;;;4969480;28;20234;-44
2023/04/08 10:55:15;;;;;;;15.57;13.60;;;12.20;99.90;;;;;;4969576;28;20177;-43
2023/04/08 10:57:41;;;;;;;16.90;14.50;;;;;;;;;;4969856;28;20209;-42
2023/04/08 11:00:11;;;;;;;18.02;14.45;;;12.20;99.90;;;;;;4969356;28;20173;-43
2023/04/08 11:02:40;;;;;;;15.73;13.27;;;12.10;99.90;;;;;;4969366;28;20303;-40
2023/04/08 11:05:08;;;;;;;16.08;14.02;;;12.30;99.90;;;;;;4969607;28;20197;-41
2023/04/08 11:07:41;;;;;;;16.08;13.75;;;12.50;99.90;;;;;;4969512;28;20177;-43
2023/04/08 11:10:08;;;;;;;16.10;13.57;;;12.50;99.90;;;;;;4969314;28;20189;-43
2023/04/08 11:12:37;;;;;;;19.60;15.57;;;;;;;;;;4969479;28;20254;-41
2023/04/08 11:15:04;;;;;;;19.42;16.02;;;12.60;99.90;;;;;;4969275;28;20166;-43
2023/04/08 11:17:32;;;;;;;19.42;15.45;;;12.40;99.90;;;;;;4969197;28;20207;-43
2023/04/08 11:20:01;;;;;;;18.73;15.32;;;12.40;99.90;;;;;;4970563;28;20169;-43
2023/04/08 11:22:29;;;;;;;20.75;17.98;;;;;;;;;;4983786;28;20168;-43
2023/04/08 11:24:56;;;;;;;21.70;18.63;;;12.40;99.90;;;;;;4992280;28;20216;-41
2023/04/08 11:27:24;;;;;;;25.27;19.08;;;12.40;99.90;;;;;;4992505;28;20180;-43
2023/04/08 11:29:51;;;;;;;24.98;19.65;;;12.30;99.90;;;;;;4992514;28;20196;-44
2023/04/08 11:32:18;;;;;;;21.33;17.58;;;12.50;99.90;;;;;;4990821;28;20257;-43
2023/04/08 11:34:44;;;;;;;22.17;19.70;;;12.60;99.90;;;;;;4991740;28;20204;-43
2023/04/08 11:37:09;;;;;;;24.70;20.83;;;12.60;99.90;;;;;;4992010;28;20631;-43
2023/04/08 11:39:43;;;;;;;27.75;23.35;;;12.90;99.90;;;;;;4991806;28;20256;-42
2023/04/08 11:42:08;;;;;;;27.67;23.30;;;13.00;99.90;;;;;;4990095;28;20184;-40
2023/04/08 11:44:34;;;;;;;28.48;23.35;;;13.20;99.90;;;;;;4991405;28;20185;-43
2023/04/08 11:47:01;;;;;;;27.13;22.92;;;13.20;99.90;;;;;;4991678;28;20165;-43
2023/04/08 11:49:26;;;;;;;25.60;22.67;;;13.10;99.90;;;;;;4991502;28;20647;-43
2023/04/08 11:51:59;;;;;;;29.80;23.83;;;13.00;99.90;;;;;;4992206;28;20173;-44
2023/04/08 11:54:29;;;;;;;25.92;23.13;;;13.20;99.90;;;;;;4992036;28;20577;-43
2023/04/08 11:56:57;;;;;;;26.13;23.02;;;;;;;;;;4991825;28;20168;-41
2023/04/08 11:59:23;;;;;;;26.77;22.75;;;13.30;99.90;;;;;;4992211;28;20182;-42
2023/04/08 12:01:48;;;;;;;27.75;23.50;;;13.30;99.90;;;;;;4990842;28;20184;-42
2023/04/08 12:04:14;;;;;;;29.00;23.25;;;;;;;;;;4991464;28;21131;-43
2023/04/08 12:06:42;;;;;;;25.83;22.10;;;13.20;99.90;;;;;;4991587;28;20173;-41
2023/04/08 12:09:08;;;;;;;25.38;21.92;;;13.10;99.90;;;;;;4991105;28;20220;-42
2023/04/08 12:11:33;;;;;;;23.58;20.20;;;13.20;99.90;;;;;;4991334;28;20177;-43
2023/04/08 12:13:59;;;;;;;25.15;19.83;;;;;;;;;;4991396;28;20184;-41
2023/04/08 12:16:25;;;;;;;24.42;21.58;;;13.10;99.90;;;;;;4991124;28;20653;-40
2023/04/08 12:18:51;;;;;;;25.02;20.50;;;;;;;;;;4991385;28;20647;-41
2023/04/08 12:21:16;;;;;;;22.10;19.17;;;12.90;99.90;;;;;;4982332;28;20528;-42
2023/04/08 12:23:42;;;;;;;26.10;19.15;;;13.00;99.90;;;;;;4971566;28;20247;-40
2023/04/08 12:26:08;;;;;;;26.67;21.00;;;12.90;99.90;;;;;;4971953;28;20177;-44
2023/04/08 12:28:34;;;;;;;28.02;20.65;;;12.90;99.90;;;;;;4971753;28;20526;-41
2023/04/08 12:31:00;;;;;;;23.13;19.13;;;;;;;;;;4971627;28;20181;-40
2023/04/08 12:33:26;;;;;;;26.75;19.15;;;12.80;99.90;;;;;;4971534;28;20173;-40
2023/04/08 12:35:52;;;;;;;29.00;21.15;;;;;;;;;;4971832;28;20174;-40
2023/04/08 12:38:18;;;;;;;31.17;21.33;;;12.30;99.90;;;;;;4971464;28;20244;-40
2023/04/08 12:40:44;;;;;;;28.58;22.13;;;12.30;99.90;;;;;;4971434;28;20603;-41
2023/04/08 12:43:10;;;;;;;31.50;22.23;;;;;;;;;;4971567;28;20206;-40
2023/04/08 12:45:35;;;;;;;28.73;21.98;;;12.20;99.90;;;;;;4971390;28;20290;-40
2023/04/08 12:48:01;;;;;;;29.67;21.67;;;;;;;;;;4971301;28;20188;-40
2023/04/08 12:50:27;;;;;;;30.80;21.58;;;;;;;;;;4971254;28;20249;-40
2023/04/08 12:52:53;;;;;;;30.77;21.40;;;12.30;99.90;;;;;;4971586;28;20579;-41
2023/04/08 12:55:18;;;;;;;29.65;21.75;;;12.10;99.90;;;;;;4971237;28;20528;-40
2023/04/08 12:57:44;;;;;;;29.55;21.10;;;;;;;;;;4970945;28;20227;-41